createdAt,value
2019-03-19T00:00:02.931Z,17.98
2019-03-19T00:01:03.579Z,17.94
2019-03-19T00:02:04.113Z,18.00
2019-03-19T00:03:04.735Z,18.11
2019-03-19T00:04:05.304Z,18.03
2019-03-19T00:05:05.874Z,18.07
2019-03-19T00:06:06.503Z,17.95
2019-03-19T00:07:07.064Z,18.01
2019-03-19T00:08:07.632Z,18.00
2019-03-19T00:09:08.202Z,18.01
2019-03-19T00:10:08.768Z,17.95
2019-03-19T00:11:09.338Z,17.90
2019-03-19T00:12:09.955Z,18.00
2019-03-19T00:13:10.550Z,17.95
2019-03-19T00:14:11.141Z,17.94
2019-03-19T00:15:11.761Z,17.98
2019-03-19T00:16:12.329Z,17.92
2019-03-19T00:17:12.897Z,18.01
2019-03-19T00:18:13.467Z,17.95
2019-03-19T00:19:14.037Z,18.00
2019-03-19T00:20:14.604Z,17.89
2019-03-19T00:21:15.175Z,17.94
2019-03-19T00:22:15.786Z,17.85
2019-03-19T00:23:16.353Z,17.85
2019-03-19T00:24:16.978Z,17.86
2019-03-19T00:25:17.541Z,17.83
2019-03-19T00:26:18.111Z,17.86
2019-03-19T00:27:18.687Z,17.87
2019-03-19T00:28:19.249Z,17.78
2019-03-19T00:29:19.818Z,17.74
2019-03-19T00:31:30.909Z,17.80
2019-03-19T00:32:31.530Z,17.71
2019-03-19T00:33:32.098Z,17.74
2019-03-19T00:34:32.769Z,17.71
2019-03-19T00:35:33.344Z,17.71
2019-03-19T00:36:33.913Z,17.71
2019-03-19T00:37:34.582Z,17.67
2019-03-19T00:38:35.253Z,17.68
2019-03-19T00:39:35.821Z,17.65
2019-03-19T00:40:36.388Z,17.67
2019-03-19T00:41:36.956Z,17.71
2019-03-19T00:42:37.523Z,17.68
2019-03-19T00:43:38.093Z,17.67
2019-03-19T00:44:38.713Z,17.70
2019-03-19T00:45:39.281Z,17.67
2019-03-19T00:46:39.854Z,17.68
2019-03-19T00:47:40.416Z,17.71
2019-03-19T00:48:41.037Z,17.63
2019-03-19T00:49:41.657Z,17.60
2019-03-19T00:50:42.218Z,17.67
2019-03-19T00:51:42.786Z,17.64
2019-03-19T00:52:43.379Z,17.56
2019-03-19T00:53:44.022Z,17.59
2019-03-19T00:54:44.639Z,17.60
2019-03-19T00:55:45.206Z,17.56
2019-03-19T00:56:45.779Z,17.57
2019-03-19T00:57:46.390Z,17.60
2019-03-19T00:58:46.954Z,17.60
2019-03-19T00:59:47.525Z,17.59
2019-03-19T01:00:48.186Z,17.54
2019-03-19T01:01:48.768Z,17.52
2019-03-19T01:02:49.322Z,17.51
2019-03-19T01:03:49.891Z,17.49
2019-03-19T01:04:50.459Z,17.45
2019-03-19T01:05:51.179Z,17.45
2019-03-19T01:06:51.749Z,17.48
2019-03-19T01:07:52.321Z,17.49
2019-03-19T01:08:52.889Z,17.46
2019-03-19T01:09:53.457Z,17.45
2019-03-19T01:10:54.026Z,17.45
2019-03-19T01:11:54.593Z,17.48
2019-03-19T01:12:55.161Z,17.46
2019-03-19T01:13:55.731Z,17.44
2019-03-19T01:14:56.299Z,17.41
2019-03-19T01:15:56.917Z,17.46
2019-03-19T01:19:04.836Z,17.41
2019-03-19T01:20:05.404Z,17.42
2019-03-19T01:21:05.969Z,17.38
2019-03-19T01:22:06.589Z,17.36
2019-03-19T01:23:07.110Z,17.41
2019-03-19T01:24:07.727Z,17.39
2019-03-19T01:25:08.297Z,17.39
2019-03-19T01:26:09.063Z,17.41
2019-03-19T01:27:09.629Z,17.46
2019-03-19T01:28:10.200Z,17.33
2019-03-19T01:29:10.767Z,17.36
2019-03-19T01:30:11.333Z,17.29
2019-03-19T01:31:11.901Z,17.36
2019-03-19T01:32:12.520Z,17.33
2019-03-19T01:33:13.135Z,17.31
2019-03-19T01:34:13.759Z,17.39
2019-03-19T01:35:14.330Z,17.39
2019-03-19T01:36:14.900Z,17.30
2019-03-19T01:37:15.462Z,17.30
2019-03-19T01:38:16.080Z,17.30
2019-03-19T01:39:16.648Z,17.23
2019-03-19T01:40:17.265Z,17.24
2019-03-19T01:41:17.831Z,17.24
2019-03-19T01:42:18.606Z,17.24
2019-03-19T01:43:19.171Z,17.23
2019-03-19T01:44:19.740Z,17.27
2019-03-19T01:45:20.308Z,17.23
2019-03-19T01:46:20.877Z,17.26
2019-03-19T01:47:21.446Z,17.16
2019-03-19T01:48:22.063Z,17.24
2019-03-19T01:49:22.635Z,17.24
2019-03-19T01:50:23.198Z,17.16
2019-03-19T01:51:23.767Z,17.22
2019-03-19T01:52:24.339Z,17.11
2019-03-19T01:53:25.103Z,17.24
2019-03-19T01:54:25.682Z,17.12
2019-03-19T01:55:26.240Z,17.15
2019-03-19T01:56:26.806Z,17.20
2019-03-19T01:57:27.379Z,17.20
2019-03-19T01:58:27.995Z,17.22
2019-03-19T01:59:28.560Z,17.20
2019-03-19T02:00:29.132Z,17.19
2019-03-19T02:01:29.744Z,17.16
2019-03-19T02:02:30.311Z,17.20
2019-03-19T02:03:30.927Z,17.16
2019-03-19T02:04:31.498Z,17.15
2019-03-19T02:05:32.113Z,17.04
2019-03-19T02:06:32.682Z,17.09
2019-03-19T02:07:33.250Z,17.09
2019-03-19T02:08:33.820Z,17.19
2019-03-19T02:09:34.390Z,17.19
2019-03-19T02:10:34.958Z,17.12
2019-03-19T02:11:35.529Z,17.12
2019-03-19T02:12:36.096Z,17.08
2019-03-19T02:13:36.665Z,17.08
2019-03-19T02:14:37.234Z,17.04
2019-03-19T02:15:37.801Z,17.12
2019-03-19T02:16:38.421Z,17.11
2019-03-19T02:17:39.040Z,17.09
2019-03-19T02:18:39.615Z,17.04
2019-03-19T02:19:40.272Z,17.08
2019-03-19T02:20:40.843Z,17.04
2019-03-19T02:21:41.410Z,17.02
2019-03-19T02:22:42.027Z,16.97
2019-03-19T02:23:42.598Z,17.04
2019-03-19T02:24:43.206Z,17.04
2019-03-19T02:25:43.821Z,16.99
2019-03-19T02:26:44.389Z,17.01
2019-03-19T02:27:44.957Z,17.04
2019-03-19T02:28:45.524Z,17.06
2019-03-19T02:29:46.093Z,16.93
2019-03-19T02:30:46.715Z,16.99
2019-03-19T02:31:47.281Z,17.01
2019-03-19T02:32:47.865Z,17.02
2019-03-19T02:33:48.414Z,16.97
2019-03-19T02:34:48.989Z,16.93
2019-03-19T02:35:49.558Z,16.99
2019-03-19T02:36:50.121Z,16.96
2019-03-19T02:37:50.690Z,16.96
2019-03-19T02:38:51.255Z,17.02
2019-03-19T02:39:51.875Z,16.94
2019-03-19T02:40:52.445Z,16.96
2019-03-19T02:41:53.066Z,16.91
2019-03-19T02:42:53.696Z,16.94
2019-03-19T02:43:54.291Z,16.86
2019-03-19T02:44:54.858Z,16.91
2019-03-19T02:45:55.427Z,16.94
2019-03-19T02:46:55.999Z,16.97
2019-03-19T02:47:56.570Z,16.97
2019-03-19T02:48:57.173Z,16.94
2019-03-19T02:49:57.741Z,16.90
2019-03-19T02:50:58.309Z,16.97
2019-03-19T02:51:59.076Z,16.86
2019-03-19T02:52:59.694Z,16.94
2019-03-19T02:54:00.262Z,16.97
2019-03-19T02:55:00.828Z,16.97
2019-03-19T02:56:01.439Z,16.96
2019-03-19T02:57:02.012Z,16.87
2019-03-19T02:58:02.666Z,16.84
2019-03-19T02:59:03.284Z,16.96
2019-03-19T03:00:03.854Z,16.83
2019-03-19T03:01:04.511Z,16.81
2019-03-19T03:02:05.080Z,16.87
2019-03-19T03:03:05.648Z,16.90
2019-03-19T03:04:06.262Z,16.93
2019-03-19T03:05:06.828Z,16.93
2019-03-19T03:06:07.399Z,16.94
2019-03-19T03:07:07.962Z,16.93
2019-03-19T03:08:08.540Z,16.86
2019-03-19T03:09:09.147Z,16.91
2019-03-19T03:10:09.709Z,16.93
2019-03-19T03:11:10.328Z,16.90
2019-03-19T03:12:10.921Z,16.91
2019-03-19T03:13:11.465Z,16.87
2019-03-19T03:14:12.083Z,16.81
2019-03-19T03:15:12.674Z,16.90
2019-03-19T03:16:13.265Z,16.87
2019-03-19T03:17:13.839Z,16.79
2019-03-19T03:18:14.493Z,16.84
2019-03-19T03:19:15.061Z,16.87
2019-03-19T03:20:15.636Z,16.86
2019-03-19T03:21:16.197Z,16.84
2019-03-19T03:22:16.810Z,16.84
2019-03-19T03:23:17.429Z,16.86
2019-03-19T03:24:18.003Z,16.79
2019-03-19T03:25:18.660Z,16.84
2019-03-19T03:26:19.229Z,16.81
2019-03-19T03:27:19.796Z,16.72
2019-03-19T03:28:20.365Z,16.84
2019-03-19T03:29:21.075Z,16.79
2019-03-19T03:30:21.645Z,16.86
2019-03-19T03:31:22.209Z,16.83
2019-03-19T03:32:22.798Z,16.76
2019-03-19T03:33:23.393Z,16.86
2019-03-19T03:34:24.000Z,16.84
2019-03-19T03:35:24.576Z,16.84
2019-03-19T03:36:25.140Z,16.81
2019-03-19T03:37:25.753Z,16.76
2019-03-19T03:38:26.373Z,16.75
2019-03-19T03:39:26.982Z,16.83
2019-03-19T03:40:27.551Z,16.84
2019-03-19T03:41:28.117Z,16.78
2019-03-19T03:42:28.685Z,16.74
2019-03-19T03:43:29.355Z,16.74
2019-03-19T03:44:29.923Z,16.72
2019-03-19T03:45:30.491Z,16.72
2019-03-19T03:46:31.058Z,16.72
2019-03-19T03:47:31.824Z,16.71
2019-03-19T03:48:32.392Z,16.66
2019-03-19T03:49:32.963Z,16.69
2019-03-19T03:50:33.527Z,16.74
2019-03-19T03:51:34.094Z,16.74
2019-03-19T03:52:34.723Z,16.72
2019-03-19T03:53:35.238Z,16.72
2019-03-19T03:54:35.805Z,16.69
2019-03-19T03:55:36.378Z,16.72
2019-03-19T03:56:36.993Z,16.72
2019-03-19T03:57:37.558Z,16.74
2019-03-19T03:58:38.132Z,16.72
2019-03-19T03:59:38.738Z,16.69
2019-03-19T04:00:39.397Z,16.64
2019-03-19T04:01:39.966Z,16.64
2019-03-19T04:02:40.534Z,16.65
2019-03-19T04:03:41.103Z,16.61
2019-03-19T04:04:41.671Z,16.60
2019-03-19T04:05:42.237Z,16.69
2019-03-19T04:06:42.807Z,16.61
2019-03-19T04:07:43.376Z,16.57
2019-03-19T04:08:43.941Z,16.66
2019-03-19T04:09:44.506Z,16.66
2019-03-19T04:10:45.075Z,16.61
2019-03-19T04:11:45.648Z,16.65
2019-03-19T04:12:46.262Z,16.60
2019-03-19T04:13:46.919Z,16.66
2019-03-19T04:14:47.488Z,16.64
2019-03-19T04:15:48.095Z,16.65
2019-03-19T04:16:48.675Z,16.68
2019-03-19T04:17:49.279Z,16.60
2019-03-19T04:18:49.848Z,16.61
2019-03-19T04:19:50.418Z,16.68
2019-03-19T04:20:50.982Z,16.65
2019-03-19T04:21:51.605Z,16.58
2019-03-19T04:22:52.167Z,16.61
2019-03-19T04:23:52.784Z,16.64
2019-03-19T04:24:53.355Z,16.56
2019-03-19T04:25:53.923Z,16.56
2019-03-19T04:26:54.487Z,16.60
2019-03-19T04:27:55.061Z,16.53
2019-03-19T04:28:55.663Z,16.60
2019-03-19T04:29:56.246Z,16.57
2019-03-19T04:30:56.801Z,16.57
2019-03-19T04:31:57.367Z,16.56
2019-03-19T04:32:57.935Z,16.51
2019-03-19T04:33:58.503Z,16.58
2019-03-19T04:34:59.070Z,16.60
2019-03-19T04:35:59.638Z,16.47
2019-03-19T04:37:00.249Z,16.53
2019-03-19T04:38:00.819Z,16.42
2019-03-19T04:39:01.384Z,16.47
2019-03-19T04:40:02.003Z,16.47
2019-03-19T04:41:02.623Z,16.50
2019-03-19T04:42:03.189Z,16.47
2019-03-19T04:43:03.763Z,16.47
2019-03-19T04:44:04.375Z,16.42
2019-03-19T04:45:04.983Z,16.47
2019-03-19T04:46:05.602Z,16.42
2019-03-19T04:47:06.171Z,16.35
2019-03-19T04:48:06.739Z,16.39
2019-03-19T04:49:07.305Z,16.39
2019-03-19T04:50:07.871Z,16.33
2019-03-19T04:51:08.439Z,16.46
2019-03-19T04:52:09.006Z,16.39
2019-03-19T04:53:09.572Z,16.33
2019-03-19T04:54:10.184Z,16.36
2019-03-19T04:55:10.755Z,16.29
2019-03-19T04:56:11.358Z,16.38
2019-03-19T04:57:11.928Z,16.35
2019-03-19T04:58:12.498Z,16.35
2019-03-19T04:59:13.064Z,16.32
2019-03-19T05:00:13.629Z,16.36
2019-03-19T05:01:14.201Z,16.33
2019-03-19T05:02:14.806Z,16.35
2019-03-19T05:03:15.423Z,16.33
2019-03-19T05:04:16.045Z,16.35
2019-03-19T05:05:16.608Z,16.35
2019-03-19T05:06:17.176Z,16.33
2019-03-19T05:07:17.744Z,16.38
2019-03-19T05:08:18.310Z,16.26
2019-03-19T05:09:18.894Z,16.20
2019-03-19T05:10:19.449Z,16.28
2019-03-19T05:11:20.015Z,16.26
2019-03-19T05:12:20.585Z,16.23
2019-03-19T05:13:21.203Z,16.16
2019-03-19T05:14:21.773Z,16.23
2019-03-19T05:15:22.340Z,16.17
2019-03-19T05:16:22.908Z,16.17
2019-03-19T05:17:23.529Z,16.23
2019-03-19T05:18:24.094Z,16.21
2019-03-19T05:19:24.668Z,16.23
2019-03-19T05:20:25.428Z,16.26
2019-03-19T05:21:25.997Z,16.24
2019-03-19T05:22:26.563Z,16.24
2019-03-19T05:23:27.133Z,16.24
2019-03-19T05:24:27.700Z,16.16
2019-03-19T05:25:28.270Z,16.24
2019-03-19T05:26:28.834Z,16.16
2019-03-19T05:27:37.065Z,16.16
2019-03-19T05:28:31.064Z,16.17
2019-03-19T05:29:31.629Z,16.20
2019-03-19T05:30:32.246Z,16.15
2019-03-19T05:31:32.866Z,16.15
2019-03-19T05:32:33.431Z,16.17
2019-03-19T05:33:33.998Z,16.23
2019-03-19T05:34:34.565Z,16.17
2019-03-19T05:35:35.134Z,16.15
2019-03-19T05:36:35.751Z,16.17
2019-03-19T05:37:36.317Z,16.20
2019-03-19T05:38:36.887Z,16.02
2019-03-19T05:39:37.504Z,16.09
2019-03-19T05:40:38.074Z,16.05
2019-03-19T05:41:38.640Z,16.04
2019-03-19T05:42:39.207Z,16.05
2019-03-19T05:43:39.826Z,16.05
2019-03-19T05:44:40.395Z,16.09
2019-03-19T05:45:40.961Z,16.12
2019-03-19T05:46:41.530Z,16.01
2019-03-19T05:47:42.146Z,16.01
2019-03-19T05:48:42.764Z,16.01
2019-03-19T05:49:43.334Z,16.09
2019-03-19T05:50:43.902Z,16.10
2019-03-19T05:51:44.511Z,16.02
2019-03-19T05:52:45.129Z,16.09
2019-03-19T05:53:45.764Z,16.00
2019-03-19T05:54:46.284Z,16.01
2019-03-19T05:55:46.851Z,15.95
2019-03-19T05:56:47.419Z,15.98
2019-03-19T05:57:50.367Z,16.00
2019-03-19T05:58:49.462Z,15.95
2019-03-19T05:59:50.030Z,16.02
2019-03-19T06:00:50.599Z,16.05
2019-03-19T06:01:51.166Z,16.08
2019-03-19T06:02:51.786Z,15.98
2019-03-19T06:03:52.351Z,16.01
2019-03-19T06:04:52.966Z,15.91
2019-03-19T06:05:53.582Z,15.88
2019-03-19T06:06:54.148Z,15.94
2019-03-19T06:07:54.716Z,15.98
2019-03-19T06:08:55.335Z,15.92
2019-03-19T06:09:55.905Z,15.91
2019-03-19T06:10:56.522Z,15.95
2019-03-19T06:11:57.089Z,15.92
2019-03-19T06:12:57.657Z,15.90
2019-03-19T06:13:58.225Z,15.84
2019-03-19T06:14:58.894Z,15.86
2019-03-19T06:15:59.461Z,15.83
2019-03-19T06:17:00.077Z,15.86
2019-03-19T06:18:00.645Z,15.91
2019-03-19T06:19:01.212Z,15.82
2019-03-19T06:20:01.780Z,15.82
2019-03-19T06:21:02.348Z,15.84
2019-03-19T06:22:02.965Z,15.82
2019-03-19T06:23:03.532Z,15.79
2019-03-19T06:24:04.100Z,15.80
2019-03-19T06:25:04.665Z,15.84
2019-03-19T06:26:05.241Z,15.83
2019-03-19T06:27:05.892Z,15.82
2019-03-19T06:28:06.459Z,15.86
2019-03-19T06:29:07.079Z,15.79
2019-03-19T06:30:07.692Z,15.80
2019-03-19T06:31:08.310Z,15.80
2019-03-19T06:32:09.078Z,15.75
2019-03-19T06:33:09.696Z,15.79
2019-03-19T06:34:10.266Z,15.70
2019-03-19T06:35:10.879Z,15.73
2019-03-19T06:36:11.445Z,15.75
2019-03-19T06:37:12.063Z,15.75
2019-03-19T06:38:12.681Z,15.73
2019-03-19T06:39:13.248Z,15.77
2019-03-19T06:40:13.816Z,15.73
2019-03-19T06:41:14.383Z,15.75
2019-03-19T06:42:14.952Z,15.75
2019-03-19T06:43:15.522Z,15.73
2019-03-19T06:44:16.233Z,15.77
2019-03-19T06:45:16.822Z,15.76
2019-03-19T06:46:17.366Z,15.73
2019-03-19T06:47:17.937Z,15.79
2019-03-19T06:48:18.501Z,15.75
2019-03-19T06:49:19.066Z,15.76
2019-03-19T06:50:19.634Z,15.70
2019-03-19T06:51:20.352Z,15.72
2019-03-19T06:52:20.971Z,15.75
2019-03-19T06:53:21.588Z,15.68
2019-03-19T06:54:22.205Z,15.77
2019-03-19T06:55:22.773Z,15.77
2019-03-19T06:56:23.343Z,15.79
2019-03-19T06:57:23.906Z,15.73
2019-03-19T06:58:24.471Z,15.72
2019-03-19T06:59:25.038Z,15.72
2019-03-19T07:00:25.603Z,15.75
2019-03-19T07:01:26.172Z,15.75
2019-03-19T07:02:26.739Z,15.77
2019-03-19T07:03:27.308Z,15.77
2019-03-19T07:04:27.872Z,15.75
2019-03-19T07:05:28.488Z,15.75
2019-03-19T07:06:29.054Z,15.79
2019-03-19T07:07:29.621Z,15.75
2019-03-19T07:08:30.187Z,15.77
2019-03-19T07:09:30.755Z,15.77
2019-03-19T07:10:31.322Z,15.79
2019-03-19T07:11:31.890Z,15.86
2019-03-19T07:12:32.465Z,15.79
2019-03-19T07:13:33.024Z,15.75
2019-03-19T07:14:33.589Z,15.75
2019-03-19T07:15:34.165Z,15.76
2019-03-19T07:16:34.778Z,15.80
2019-03-19T07:17:35.394Z,15.75
2019-03-19T07:18:35.960Z,15.77
2019-03-19T07:19:36.527Z,15.73
2019-03-19T07:20:37.100Z,15.76
2019-03-19T07:21:37.717Z,15.73
2019-03-19T07:22:38.282Z,15.75
2019-03-19T07:23:38.888Z,15.67
2019-03-19T07:24:39.454Z,15.79
2019-03-19T07:25:40.023Z,15.83
2019-03-19T07:26:40.639Z,15.82
2019-03-19T07:27:41.258Z,15.82
2019-03-19T07:28:41.826Z,15.75
2019-03-19T07:29:42.393Z,15.70
2019-03-19T07:30:42.959Z,15.70
2019-03-19T07:31:43.529Z,15.70
2019-03-19T07:32:44.095Z,15.70
2019-03-19T07:33:44.660Z,15.72
2019-03-19T07:34:45.228Z,15.72
2019-03-19T07:35:45.793Z,15.76
2019-03-19T07:36:46.359Z,15.72
2019-03-19T07:37:46.927Z,15.70
2019-03-19T07:38:47.492Z,15.72
2019-03-19T07:39:48.059Z,15.70
2019-03-19T07:40:48.624Z,15.79
2019-03-19T07:41:49.241Z,15.73
2019-03-19T07:42:49.807Z,15.73
2019-03-19T07:43:50.378Z,15.77
2019-03-19T07:44:50.946Z,15.77
2019-03-19T07:45:51.560Z,15.73
2019-03-19T07:46:52.228Z,15.83
2019-03-19T07:47:52.794Z,15.84
2019-03-19T07:48:53.412Z,15.82
2019-03-19T07:49:53.979Z,15.80
2019-03-19T07:50:54.545Z,15.80
2019-03-19T07:51:55.113Z,15.83
2019-03-19T07:52:55.679Z,15.82
2019-03-19T07:53:56.246Z,15.83
2019-03-19T07:54:56.857Z,15.86
2019-03-19T07:55:57.421Z,15.76
2019-03-19T07:56:58.035Z,15.68
2019-03-19T07:57:58.653Z,15.75
2019-03-19T07:58:59.269Z,15.75
2019-03-19T07:59:59.836Z,15.73
2019-03-19T08:01:00.403Z,15.77
2019-03-19T08:02:00.969Z,15.82
2019-03-19T08:03:01.540Z,15.77
2019-03-19T08:04:02.111Z,15.73
2019-03-19T08:05:02.813Z,15.83
2019-03-19T08:06:03.431Z,15.83
2019-03-19T08:07:04.050Z,15.83
2019-03-19T08:08:04.614Z,15.79
2019-03-19T08:09:05.183Z,15.88
2019-03-19T08:10:05.751Z,15.80
2019-03-19T08:11:06.317Z,15.83
2019-03-19T08:12:06.886Z,15.82
2019-03-19T08:13:07.502Z,15.86
2019-03-19T08:14:08.067Z,15.90
2019-03-19T08:15:08.690Z,15.90
2019-03-19T08:16:09.252Z,15.86
2019-03-19T08:17:09.820Z,15.84
2019-03-19T08:18:10.390Z,15.92
2019-03-19T08:19:11.001Z,16.00
2019-03-19T08:20:11.619Z,15.95
2019-03-19T08:21:12.187Z,15.95
2019-03-19T08:22:12.752Z,15.97
2019-03-19T08:23:13.323Z,15.97
2019-03-19T08:24:13.885Z,15.98
2019-03-19T08:25:14.451Z,15.98
2019-03-19T08:26:15.018Z,16.05
2019-03-19T08:27:15.585Z,15.95
2019-03-19T08:28:16.151Z,16.12
2019-03-19T08:29:16.718Z,16.08
2019-03-19T08:30:17.284Z,16.10
2019-03-19T08:31:17.871Z,16.05
2019-03-19T08:32:18.417Z,16.04
2019-03-19T08:33:18.981Z,16.04
2019-03-19T08:34:19.552Z,16.04
2019-03-19T08:35:20.271Z,16.04
2019-03-19T08:36:20.878Z,16.05
2019-03-19T08:37:21.494Z,16.05
2019-03-19T08:38:22.061Z,16.08
2019-03-19T08:39:22.630Z,16.08
2019-03-19T08:40:23.247Z,16.05
2019-03-19T08:41:23.816Z,16.09
2019-03-19T08:42:24.384Z,16.24
2019-03-19T08:43:24.950Z,16.28
2019-03-19T08:44:27.943Z,16.15
2019-03-19T08:45:27.180Z,16.23
2019-03-19T08:46:27.758Z,16.20
2019-03-19T08:47:28.331Z,16.38
2019-03-19T08:48:28.907Z,16.33
2019-03-19T08:49:29.522Z,16.36
2019-03-19T08:50:30.136Z,16.33
2019-03-19T08:51:30.709Z,16.33
2019-03-19T08:52:31.341Z,16.36
2019-03-19T08:53:31.912Z,16.41
2019-03-19T08:54:32.720Z,16.36
2019-03-19T08:55:33.308Z,16.33
2019-03-19T08:56:33.909Z,16.35
2019-03-19T08:57:34.451Z,16.43
2019-03-19T08:58:35.024Z,16.47
2019-03-19T08:59:35.596Z,16.43
2019-03-19T09:00:36.170Z,16.39
2019-03-19T09:01:36.744Z,16.49
2019-03-19T09:02:37.320Z,16.50
2019-03-19T09:03:37.940Z,16.49
2019-03-19T09:04:38.514Z,16.47
2019-03-19T09:05:39.139Z,16.49
2019-03-19T09:06:39.713Z,16.49
2019-03-19T09:07:40.290Z,16.47
2019-03-19T09:08:40.872Z,16.43
2019-03-19T09:09:41.488Z,16.39
2019-03-19T09:10:42.064Z,16.51
2019-03-19T09:11:42.637Z,16.46
2019-03-19T09:12:43.214Z,16.47
2019-03-19T09:13:43.791Z,16.57
2019-03-19T09:14:44.413Z,16.56
2019-03-19T09:15:44.988Z,16.57
2019-03-19T09:16:45.568Z,16.57
2019-03-19T09:17:46.145Z,16.56
2019-03-19T09:18:46.763Z,16.57
2019-03-19T09:19:47.338Z,16.58
2019-03-19T09:20:47.908Z,16.54
2019-03-19T09:21:48.479Z,16.57
2019-03-19T09:22:49.051Z,16.57
2019-03-19T09:23:49.625Z,16.58
2019-03-19T09:24:50.197Z,16.56
2019-03-19T09:25:50.770Z,16.56
2019-03-19T09:26:51.345Z,16.50
2019-03-19T09:27:51.959Z,16.61
2019-03-19T09:28:52.531Z,16.57
2019-03-19T09:29:53.104Z,16.57
2019-03-19T09:30:53.677Z,16.51
2019-03-19T09:31:54.450Z,16.57
2019-03-19T09:32:55.074Z,16.58
2019-03-19T09:33:55.658Z,16.57
2019-03-19T09:34:56.314Z,16.58
2019-03-19T09:35:56.890Z,16.58
2019-03-19T09:36:57.858Z,16.60
2019-03-19T09:37:59.259Z,16.58
2019-03-19T09:38:59.891Z,16.58
2019-03-19T09:40:00.471Z,16.51
2019-03-19T09:41:01.040Z,16.58
2019-03-19T09:42:01.614Z,16.57
2019-03-19T09:43:02.188Z,16.61
2019-03-19T09:44:02.762Z,16.65
2019-03-19T09:45:03.340Z,16.58
2019-03-19T09:46:03.953Z,16.60
2019-03-19T09:47:04.575Z,16.57
2019-03-19T09:48:05.199Z,16.68
2019-03-19T09:49:05.793Z,16.65
2019-03-19T09:50:06.349Z,16.66
2019-03-19T09:51:06.921Z,16.66
2019-03-19T09:52:07.645Z,16.65
2019-03-19T09:53:08.220Z,16.61
2019-03-19T09:54:08.792Z,16.65
2019-03-19T09:55:09.366Z,16.68
2019-03-19T09:56:09.941Z,16.64
2019-03-19T09:57:10.514Z,16.71
2019-03-19T09:58:11.088Z,16.71
2019-03-19T09:59:11.666Z,16.61
2019-03-19T10:00:12.290Z,16.69
2019-03-19T10:01:12.861Z,16.65
2019-03-19T10:02:13.434Z,16.72
2019-03-19T10:03:14.005Z,16.71
2019-03-19T10:04:14.579Z,16.78
2019-03-19T10:05:15.151Z,16.79
2019-03-19T10:06:15.775Z,16.76
2019-03-19T10:07:16.350Z,16.79
2019-03-19T10:08:16.920Z,16.74
2019-03-19T10:09:17.495Z,16.75
2019-03-19T10:10:18.070Z,16.76
2019-03-19T10:11:18.742Z,16.86
2019-03-19T10:12:19.314Z,16.81
2019-03-19T10:13:19.884Z,16.87
2019-03-19T10:14:20.456Z,16.83
2019-03-19T10:15:21.083Z,16.91
2019-03-19T10:16:21.660Z,16.94
2019-03-19T10:17:22.231Z,16.83
2019-03-19T10:18:22.806Z,16.79
2019-03-19T10:19:23.379Z,16.90
2019-03-19T10:20:23.953Z,16.90
2019-03-19T10:21:24.527Z,16.89
2019-03-19T10:22:25.151Z,16.79
2019-03-19T10:23:25.724Z,16.86
2019-03-19T10:24:26.298Z,17.01
2019-03-19T10:25:26.873Z,17.02
2019-03-19T10:26:27.446Z,16.94
2019-03-19T10:27:28.069Z,16.97
2019-03-19T10:28:28.642Z,16.86
2019-03-19T10:29:37.892Z,16.94
2019-03-19T10:30:30.830Z,16.87
2019-03-19T10:31:31.402Z,16.99
2019-03-19T10:32:31.974Z,16.90
2019-03-19T10:33:32.549Z,16.97
2019-03-19T10:34:33.127Z,17.01
2019-03-19T10:35:33.694Z,16.90
2019-03-19T10:36:34.319Z,17.01
2019-03-19T10:37:34.940Z,16.86
2019-03-19T10:38:35.516Z,16.86
2019-03-19T10:39:36.086Z,16.91
2019-03-19T10:40:36.658Z,16.93
2019-03-19T10:41:37.282Z,16.94
2019-03-19T10:42:37.860Z,16.96
2019-03-19T10:43:38.429Z,17.04
2019-03-19T10:44:39.002Z,16.93
2019-03-19T10:45:39.627Z,16.97
2019-03-19T10:46:40.203Z,16.93
2019-03-19T10:47:40.829Z,16.97
2019-03-19T10:48:41.401Z,16.93
2019-03-19T10:49:41.979Z,16.97
2019-03-19T10:50:42.603Z,16.96
2019-03-19T10:51:43.178Z,16.99
2019-03-19T10:52:43.893Z,17.09
2019-03-19T10:53:44.516Z,16.99
2019-03-19T10:54:45.088Z,17.04
2019-03-19T10:55:45.713Z,17.06
2019-03-19T10:56:46.288Z,17.04
2019-03-19T10:57:46.872Z,17.04
2019-03-19T10:58:47.481Z,17.02
2019-03-19T10:59:49.435Z,17.08
2019-03-19T11:00:49.623Z,17.08
2019-03-19T11:01:51.541Z,17.04
2019-03-19T11:02:51.772Z,17.14
2019-03-19T11:03:52.385Z,17.12
2019-03-19T11:04:52.959Z,17.16
2019-03-19T11:05:53.574Z,17.16
2019-03-19T11:06:54.148Z,17.16
2019-03-19T11:07:54.724Z,17.15
2019-03-19T11:08:55.298Z,17.11
2019-03-19T11:09:55.873Z,17.23
2019-03-19T11:10:56.596Z,17.16
2019-03-19T11:11:57.169Z,17.24
2019-03-19T11:12:57.742Z,17.16
2019-03-19T11:13:58.316Z,17.26
2019-03-19T11:14:58.890Z,17.29
2019-03-19T11:15:59.464Z,17.24
2019-03-19T11:17:00.088Z,17.26
2019-03-19T11:18:00.664Z,17.27
2019-03-19T11:19:01.238Z,17.38
2019-03-19T11:20:01.815Z,17.33
2019-03-19T11:21:02.439Z,17.42
2019-03-19T11:22:03.013Z,17.29
2019-03-19T11:23:03.587Z,17.44
2019-03-19T11:24:04.232Z,17.39
2019-03-19T11:25:04.790Z,17.36
2019-03-19T11:26:05.362Z,17.36
2019-03-19T11:27:05.938Z,17.36
2019-03-19T11:28:06.561Z,17.39
2019-03-19T11:29:07.137Z,17.44
2019-03-19T11:30:07.712Z,17.44
2019-03-19T11:31:08.289Z,17.45
2019-03-19T11:32:08.862Z,17.45
2019-03-19T11:33:09.436Z,17.51
2019-03-19T11:34:10.024Z,17.49
2019-03-19T11:35:10.635Z,17.49
2019-03-19T11:36:11.208Z,17.54
2019-03-19T11:37:11.782Z,17.51
2019-03-19T11:38:12.354Z,17.63
2019-03-19T11:39:13.078Z,17.59
2019-03-19T11:40:13.653Z,17.64
2019-03-19T11:41:14.223Z,17.59
2019-03-19T11:42:14.803Z,17.67
2019-03-19T11:43:15.375Z,17.63
2019-03-19T11:44:15.951Z,17.67
2019-03-19T11:45:16.676Z,17.63
2019-03-19T11:46:17.249Z,17.64
2019-03-19T11:47:17.823Z,17.64
2019-03-19T11:48:18.398Z,17.67
2019-03-19T11:49:18.975Z,17.65
2019-03-19T11:50:19.553Z,17.68
2019-03-19T11:51:20.126Z,17.74
2019-03-19T11:52:20.699Z,17.72
2019-03-19T11:53:21.332Z,17.71
2019-03-19T11:54:21.904Z,17.74
2019-03-19T11:55:22.475Z,17.79
2019-03-19T11:56:23.054Z,17.76
2019-03-19T11:57:23.684Z,17.70
2019-03-19T11:58:24.248Z,17.71
2019-03-19T11:59:24.871Z,17.71
2019-03-19T12:00:25.448Z,17.76
2019-03-19T12:01:26.024Z,17.74
2019-03-19T12:02:26.650Z,17.83
2019-03-19T12:03:27.226Z,17.70
2019-03-19T12:04:27.802Z,17.74
2019-03-19T12:05:28.377Z,17.67
2019-03-19T12:06:28.952Z,17.78
2019-03-19T12:07:29.527Z,17.76
2019-03-19T12:08:30.105Z,17.76
2019-03-19T12:09:30.681Z,17.71
2019-03-19T12:10:31.257Z,17.70
2019-03-19T12:11:31.874Z,17.76
2019-03-19T12:12:32.447Z,17.70
2019-03-19T12:13:33.070Z,17.72
2019-03-19T12:14:33.646Z,17.72
2019-03-19T12:15:34.222Z,17.74
2019-03-19T12:16:34.847Z,17.72
2019-03-19T12:17:35.471Z,17.70
2019-03-19T12:18:36.048Z,17.68
2019-03-19T12:19:36.771Z,17.72
2019-03-19T12:20:37.394Z,17.71
2019-03-19T12:21:37.967Z,17.70
2019-03-19T12:22:38.541Z,17.76
2019-03-19T12:23:39.116Z,17.67
2019-03-19T12:24:39.688Z,17.74
2019-03-19T12:25:40.261Z,17.72
2019-03-19T12:26:40.833Z,17.71
2019-03-19T12:27:41.408Z,17.79
2019-03-19T12:28:41.988Z,17.72
2019-03-19T12:29:42.557Z,17.74
2019-03-19T12:30:43.331Z,17.76
2019-03-19T12:31:43.904Z,17.74
2019-03-19T12:32:44.528Z,17.80
2019-03-19T12:33:45.154Z,17.82
2019-03-19T12:34:45.776Z,17.72
2019-03-19T12:35:46.450Z,17.74
2019-03-19T12:36:47.027Z,17.78
2019-03-19T12:37:47.603Z,17.78
2019-03-19T12:38:48.279Z,17.72
2019-03-19T12:39:48.860Z,17.71
2019-03-19T12:40:49.435Z,17.79
2019-03-19T12:41:50.013Z,17.70
2019-03-19T12:42:50.586Z,17.76
2019-03-19T12:43:51.210Z,17.71
2019-03-19T12:44:51.786Z,17.71
2019-03-19T12:45:52.362Z,17.70
2019-03-19T12:46:52.938Z,17.71
2019-03-19T12:47:53.515Z,17.79
2019-03-19T12:48:54.424Z,17.71
2019-03-19T12:49:55.043Z,17.72
2019-03-19T12:50:55.669Z,17.76
2019-03-19T12:51:56.241Z,17.70
2019-03-19T12:52:56.822Z,17.71
2019-03-19T12:53:57.431Z,17.78
2019-03-19T12:54:58.055Z,17.72
2019-03-19T12:55:58.678Z,17.72
2019-03-19T12:56:59.252Z,17.74
2019-03-19T12:58:01.415Z,17.68
2019-03-19T12:59:01.394Z,17.71
2019-03-19T13:00:01.970Z,17.70
2019-03-19T13:01:02.596Z,17.71
2019-03-19T13:02:03.145Z,17.70
2019-03-19T13:03:03.719Z,17.72